createdAt,value
2022-11-27T00:01:38.357Z,9.10
2022-11-27T00:04:08.008Z,9.10
2022-11-27T00:06:38.730Z,9.00
2022-11-27T00:09:11.912Z,9.00
2022-11-27T00:11:40.882Z,9.00
2022-11-27T00:14:14.066Z,9.00
2022-11-27T00:16:42.994Z,9.00
2022-11-27T00:19:12.242Z,9.00
2022-11-27T00:21:40.833Z,8.90
2022-11-27T00:24:11.279Z,8.90
2022-11-27T00:26:39.804Z,8.90
2022-11-27T00:29:11.120Z,8.90
2022-11-27T00:31:40.012Z,8.90
2022-11-27T00:34:10.138Z,8.90
2022-11-27T00:36:41.134Z,8.90
2022-11-27T00:39:12.536Z,8.90
2022-11-27T00:41:41.087Z,8.90
2022-11-27T00:44:11.028Z,8.90
2022-11-27T00:46:40.893Z,8.80
2022-11-27T00:49:12.488Z,8.80
2022-11-27T00:51:40.958Z,8.80
2022-11-27T00:54:09.727Z,8.80
2022-11-27T00:56:40.492Z,8.80
2022-11-27T00:59:11.309Z,8.80
2022-11-27T01:01:42.776Z,8.80
2022-11-27T01:04:15.380Z,8.80
2022-11-27T01:06:44.875Z,8.80
2022-11-27T01:09:14.388Z,8.80
2022-11-27T01:11:43.432Z,8.70
2022-11-27T01:14:16.877Z,8.70
2022-11-27T01:16:45.693Z,8.70
2022-11-27T01:19:16.285Z,8.70
2022-11-27T01:21:44.734Z,8.70
2022-11-27T01:24:16.036Z,8.70
2022-11-27T01:26:44.588Z,8.60
2022-11-27T01:29:14.498Z,8.60
2022-11-27T01:31:43.085Z,8.70
2022-11-27T01:34:17.586Z,8.60
2022-11-27T01:36:46.508Z,8.60
2022-11-27T01:39:18.616Z,8.70
2022-11-27T01:41:49.385Z,8.50
2022-11-27T01:44:56.414Z,8.60
2022-11-27T01:47:41.484Z,8.60
2022-11-27T01:50:19.047Z,8.60
2022-11-27T01:52:52.763Z,8.60
2022-11-27T01:55:29.625Z,8.60
2022-11-27T01:58:03.453Z,8.70
2022-11-27T02:00:33.625Z,8.50
2022-11-27T02:03:02.258Z,8.50
2022-11-27T02:05:31.116Z,8.50
2022-11-27T02:08:04.608Z,8.50
2022-11-27T02:10:44.980Z,8.40
2022-11-27T02:13:20.167Z,8.40
2022-11-27T02:15:59.475Z,8.50
2022-11-27T02:18:36.327Z,8.40
2022-11-27T02:21:12.437Z,8.40
2022-11-27T02:24:05.932Z,8.30
2022-11-27T02:27:22.587Z,8.40
2022-11-27T02:29:58.275Z,8.30
2022-11-27T02:32:35.736Z,8.30
2022-11-27T02:35:11.757Z,8.30
2022-11-27T02:37:48.896Z,8.20
2022-11-27T02:40:24.271Z,8.40
2022-11-27T02:42:58.988Z,8.30
2022-11-27T02:45:33.852Z,8.30
2022-11-27T02:48:02.338Z,8.20
2022-11-27T02:50:33.365Z,8.10
2022-11-27T02:53:08.117Z,8.10
2022-11-27T02:55:40.068Z,8.10
2022-11-27T02:58:14.518Z,8.20
2022-11-27T03:00:46.662Z,8.10
2022-11-27T03:03:21.534Z,8.10
2022-11-27T03:05:54.561Z,8.00
2022-11-27T03:08:29.515Z,8.20
2022-11-27T03:11:05.818Z,8.00
2022-11-27T03:13:38.461Z,8.00
2022-11-27T03:16:14.409Z,8.10
2022-11-27T03:18:53.821Z,8.00
2022-11-27T03:21:29.171Z,8.10
2022-11-27T03:23:59.090Z,8.00
2022-11-27T03:26:27.881Z,7.90
2022-11-27T03:28:58.306Z,8.00
2022-11-27T03:31:28.768Z,7.90
2022-11-27T03:33:57.814Z,7.90
2022-11-27T03:36:26.490Z,7.90
2022-11-27T03:38:56.479Z,8.00
2022-11-27T03:41:36.395Z,7.90
2022-11-27T03:44:13.795Z,7.80
2022-11-27T03:46:55.020Z,7.90
2022-11-27T03:49:33.683Z,7.80
2022-11-27T03:52:09.868Z,7.90
2022-11-27T03:54:50.029Z,7.80
2022-11-27T03:57:24.710Z,7.70
2022-11-27T03:59:58.020Z,7.70
2022-11-27T04:02:40.828Z,7.80
2022-11-27T04:05:10.451Z,7.70
2022-11-27T04:07:39.175Z,7.60
2022-11-27T04:10:10.627Z,7.70
2022-11-27T04:12:39.141Z,7.60
2022-11-27T04:15:09.028Z,7.60
2022-11-27T04:17:38.835Z,7.60
2022-11-27T04:20:09.678Z,7.60
2022-11-27T04:22:38.076Z,7.60
2022-11-27T04:25:07.529Z,7.60
2022-11-27T04:27:36.021Z,7.50
2022-11-27T04:30:05.097Z,7.60
2022-11-27T04:32:33.514Z,7.50
2022-11-27T04:35:03.330Z,7.50
2022-11-27T04:37:31.778Z,7.50
2022-11-27T04:40:00.179Z,7.50
2022-11-27T04:42:29.125Z,7.40
2022-11-27T04:44:57.934Z,7.40
2022-11-27T04:47:26.347Z,7.60
2022-11-27T04:49:54.748Z,7.50
2022-11-27T04:52:24.573Z,7.40
2022-11-27T04:54:58.315Z,7.40
2022-11-27T04:57:28.370Z,7.40
2022-11-27T04:59:56.920Z,7.40
2022-11-27T05:02:25.593Z,7.40
2022-11-27T05:04:54.216Z,7.40
2022-11-27T05:07:24.187Z,7.30
2022-11-27T05:09:52.642Z,7.30
2022-11-27T05:12:21.032Z,7.30
2022-11-27T05:14:49.476Z,7.40
2022-11-27T05:17:17.985Z,7.30
2022-11-27T05:19:46.338Z,7.30
2022-11-27T05:22:14.790Z,7.40
2022-11-27T05:24:44.595Z,7.30
2022-11-27T05:27:13.028Z,7.30
2022-11-27T05:29:41.420Z,7.40
2022-11-27T05:32:09.840Z,7.20
2022-11-27T05:34:38.478Z,7.20
2022-11-27T05:37:07.112Z,7.20
2022-11-27T05:39:35.589Z,7.30
2022-11-27T05:42:05.657Z,7.20
2022-11-27T05:44:34.007Z,7.20
2022-11-27T05:47:02.567Z,7.30
2022-11-27T05:49:30.982Z,7.30
2022-11-27T05:51:59.608Z,7.30
2022-11-27T05:54:28.195Z,7.20
2022-11-27T05:56:56.617Z,7.20
2022-11-27T05:59:26.392Z,7.20
2022-11-27T06:01:54.823Z,7.30
2022-11-27T06:04:23.567Z,7.30
2022-11-27T06:06:51.927Z,7.10
2022-11-27T06:09:20.275Z,7.10
2022-11-27T06:11:48.679Z,7.10
2022-11-27T06:14:17.071Z,7.10
2022-11-27T06:16:46.918Z,7.20
2022-11-27T06:19:15.581Z,7.10
2022-11-27T06:21:46.491Z,7.20
2022-11-27T06:24:15.064Z,7.10
2022-11-27T06:26:43.726Z,7.10
2022-11-27T06:29:12.313Z,7.20
2022-11-27T06:31:41.408Z,7.10
2022-11-27T06:34:13.699Z,7.10
2022-11-27T06:36:42.190Z,7.10
2022-11-27T06:39:12.858Z,7.10
2022-11-27T06:41:41.235Z,7.10
2022-11-27T06:44:11.813Z,7.00
2022-11-27T06:46:40.403Z,7.10
2022-11-27T06:49:10.605Z,7.00
2022-11-27T06:51:39.095Z,7.00
2022-11-27T06:54:07.952Z,7.10
2022-11-27T06:56:36.409Z,6.90
2022-11-27T06:59:04.867Z,7.10
2022-11-27T07:01:34.355Z,6.90
2022-11-27T07:04:06.891Z,6.90
2022-11-27T07:06:36.692Z,6.90
2022-11-27T07:09:05.662Z,6.90
2022-11-27T07:11:35.207Z,6.90
2022-11-27T07:14:05.915Z,6.90
2022-11-27T07:16:36.929Z,6.90
2022-11-27T07:19:08.622Z,6.90
2022-11-27T07:21:40.114Z,7.10
2022-11-27T07:24:09.341Z,6.90
2022-11-27T07:26:37.704Z,6.90
2022-11-27T07:29:06.063Z,7.00
2022-11-27T07:31:34.528Z,6.90
2022-11-27T07:34:05.703Z,6.90
2022-11-27T07:36:35.328Z,7.00
2022-11-27T07:39:05.319Z,7.00
2022-11-27T07:41:34.289Z,6.90
2022-11-27T07:44:03.078Z,7.00
2022-11-27T07:46:31.751Z,7.10
2022-11-27T07:49:01.379Z,7.00
2022-11-27T07:51:30.245Z,7.00
2022-11-27T07:53:59.050Z,7.10
2022-11-27T07:56:28.859Z,7.00
2022-11-27T07:58:58.137Z,7.00
2022-11-27T08:01:26.575Z,7.10
2022-11-27T08:03:55.050Z,7.00
2022-11-27T08:06:25.316Z,7.00
2022-11-27T08:08:56.648Z,7.00
2022-11-27T08:11:29.757Z,7.00
2022-11-27T08:14:01.325Z,7.10
2022-11-27T08:16:30.968Z,7.10
2022-11-27T08:19:00.032Z,7.10
2022-11-27T08:21:29.775Z,7.20
2022-11-27T08:23:58.808Z,7.10
2022-11-27T08:26:28.877Z,7.10
2022-11-27T08:28:58.124Z,7.10
2022-11-27T08:31:26.877Z,7.10
2022-11-27T08:33:55.326Z,7.10
2022-11-27T08:36:27.031Z,7.10
2022-11-27T08:38:56.310Z,7.20
2022-11-27T08:41:24.712Z,7.20
2022-11-27T08:43:54.550Z,7.10
2022-11-27T08:46:23.042Z,7.10
2022-11-27T08:48:51.528Z,7.30
2022-11-27T08:51:19.954Z,7.20
2022-11-27T08:53:48.368Z,7.30
2022-11-27T08:56:19.533Z,7.20
2022-11-27T08:58:48.629Z,7.20
2022-11-27T09:01:21.632Z,7.30
2022-11-27T09:03:50.547Z,7.40
2022-11-27T09:06:21.804Z,7.30
2022-11-27T09:08:51.003Z,7.50
2022-11-27T09:11:21.445Z,7.30
2022-11-27T09:13:50.482Z,7.40
2022-11-27T09:16:22.551Z,7.40
2022-11-27T09:18:52.820Z,7.40
2022-11-27T09:21:23.985Z,7.40
2022-11-27T09:23:54.993Z,7.50
2022-11-27T09:26:25.545Z,7.70
2022-11-27T09:28:55.002Z,7.50
2022-11-27T09:31:25.983Z,7.50
2022-11-27T09:33:54.707Z,7.60
2022-11-27T09:36:26.228Z,7.60
2022-11-27T09:38:55.411Z,7.60
2022-11-27T09:41:48.959Z,7.70
2022-11-27T09:44:33.236Z,7.70
2022-11-27T09:47:13.250Z,7.70
2022-11-27T09:49:46.566Z,7.80
2022-11-27T09:52:23.899Z,7.80
2022-11-27T09:54:58.848Z,7.90
2022-11-27T09:57:32.872Z,7.90
2022-11-27T10:00:09.196Z,7.90
2022-11-27T10:02:39.126Z,8.00
2022-11-27T10:05:19.322Z,8.00
2022-11-27T10:08:14.889Z,8.00
2022-11-27T10:10:51.766Z,8.20
2022-11-27T10:13:41.644Z,8.20
2022-11-27T10:16:20.961Z,8.20
2022-11-27T10:18:55.624Z,8.20
2022-11-27T10:21:36.667Z,8.30
2022-11-27T10:24:17.403Z,8.40
2022-11-27T10:26:49.392Z,8.30
2022-11-27T10:29:36.989Z,8.40
2022-11-27T10:32:46.712Z,8.40
2022-11-27T10:35:11.041Z,8.40
2022-11-27T10:37:44.037Z,8.40
2022-11-27T10:40:24.033Z,8.50
2022-11-27T10:43:00.736Z,8.40
2022-11-27T10:45:39.686Z,8.40
2022-11-27T10:48:08.380Z,8.40
2022-11-27T10:50:38.179Z,8.40
2022-11-27T10:53:10.533Z,8.50
2022-11-27T10:55:57.612Z,8.50
2022-11-27T10:58:33.994Z,8.50
2022-11-27T11:01:04.501Z,8.50
2022-11-27T11:03:32.920Z,8.60
2022-11-27T11:06:20.750Z,8.60
2022-11-27T11:09:01.663Z,8.70
2022-11-27T11:11:30.207Z,8.80
2022-11-27T11:13:58.584Z,8.90
2022-11-27T11:16:34.768Z,9.00
2022-11-27T11:19:06.178Z,9.00
2022-11-27T11:21:40.481Z,9.20
2022-11-27T11:24:16.458Z,9.30
2022-11-27T11:26:48.632Z,9.40
2022-11-27T11:29:31.219Z,9.60
2022-11-27T11:32:08.268Z,9.50
2022-11-27T11:34:37.551Z,9.50
2022-11-27T11:37:23.978Z,9.60
2022-11-27T11:39:58.713Z,9.70
2022-11-27T11:42:31.439Z,10.00
2022-11-27T11:45:06.800Z,9.70
2022-11-27T11:47:36.867Z,9.80
2022-11-27T11:50:06.474Z,9.80
2022-11-27T11:52:52.451Z,9.80
2022-11-27T11:55:27.356Z,9.70
2022-11-27T11:58:22.659Z,9.70
2022-11-27T12:01:25.460Z,9.70
2022-11-27T12:04:03.552Z,9.70
2022-11-27T12:06:49.014Z,10.00
2022-11-27T12:09:39.666Z,9.60
2022-11-27T12:12:23.086Z,9.60
2022-11-27T12:14:57.844Z,9.60
2022-11-27T12:17:49.805Z,9.60
2022-11-27T12:20:25.903Z,9.50
2022-11-27T12:23:39.775Z,9.50
2022-11-27T12:26:21.503Z,9.50
2022-11-27T12:29:44.652Z,9.50
2022-11-27T12:32:31.547Z,9.50
2022-11-27T12:35:19.706Z,9.50
2022-11-27T12:38:00.784Z,9.50
2022-11-27T12:40:52.916Z,9.50
2022-11-27T12:43:26.584Z,9.60
2022-11-27T12:46:00.622Z,9.60
2022-11-27T12:48:36.184Z,9.90
2022-11-27T12:51:11.255Z,9.60
2022-11-27T12:53:47.509Z,9.70
2022-11-27T12:56:24.184Z,9.70
2022-11-27T12:58:59.810Z,9.70
2022-11-27T13:01:35.574Z,9.70
2022-11-27T13:04:18.575Z,9.80
2022-11-27T13:06:57.055Z,9.80
2022-11-27T13:09:39.212Z,9.90
2022-11-27T13:12:08.702Z,9.90
2022-11-27T13:14:44.347Z,9.90
2022-11-27T13:17:18.056Z,10.00
2022-11-27T13:19:50.460Z,10.00
2022-11-27T13:22:27.454Z,10.10
2022-11-27T13:24:57.128Z,10.10
2022-11-27T13:27:28.375Z,10.20
2022-11-27T13:30:02.123Z,10.20
2022-11-27T13:32:33.154Z,10.30
2022-11-27T13:35:06.226Z,10.30
2022-11-27T13:37:38.380Z,10.40
2022-11-27T13:40:19.377Z,10.40
2022-11-27T13:42:53.313Z,10.50
2022-11-27T13:45:28.218Z,10.70
2022-11-27T13:47:58.683Z,10.60
2022-11-27T13:50:31.305Z,10.60
2022-11-27T13:53:04.591Z,10.60
2022-11-27T13:55:36.695Z,10.60
2022-11-27T13:58:08.139Z,10.60
2022-11-27T14:00:41.016Z,10.60
2022-11-27T14:03:22.871Z,10.70
2022-11-27T14:05:51.363Z,10.60
2022-11-27T14:08:23.394Z,10.50
2022-11-27T14:11:00.084Z,10.80
2022-11-27T14:13:42.266Z,10.50
2022-11-27T14:16:31.064Z,10.50
2022-11-27T14:19:01.990Z,10.50
2022-11-27T14:21:41.882Z,10.50
2022-11-27T14:24:35.625Z,10.50
2022-11-27T14:27:17.446Z,10.50
2022-11-27T14:29:46.130Z,10.50
2022-11-27T14:32:17.712Z,10.40
2022-11-27T14:34:47.956Z,10.40
2022-11-27T14:37:26.175Z,10.40
2022-11-27T14:39:55.057Z,10.40
2022-11-27T14:42:28.883Z,10.50
2022-11-27T14:45:06.941Z,10.40
2022-11-27T14:47:37.396Z,10.40
2022-11-27T14:50:07.588Z,10.40
2022-11-27T14:52:36.166Z,10.40
2022-11-27T14:55:05.291Z,10.60
2022-11-27T14:57:33.877Z,10.30
2022-11-27T15:00:06.109Z,10.30
2022-11-27T15:02:36.002Z,10.30
2022-11-27T15:05:07.598Z,10.30
2022-11-27T15:07:45.307Z,10.30
2022-11-27T15:10:26.192Z,10.30
2022-11-27T15:12:55.191Z,10.30
2022-11-27T15:15:27.479Z,10.30
2022-11-27T15:18:00.649Z,10.40
2022-11-27T15:20:37.016Z,10.30
2022-11-27T15:23:15.460Z,10.30
2022-11-27T15:25:46.831Z,10.20
2022-11-27T15:28:34.918Z,10.20
2022-11-27T15:31:23.971Z,10.40
2022-11-27T15:34:04.390Z,10.30
2022-11-27T15:36:38.995Z,10.20
2022-11-27T15:39:21.648Z,10.20
2022-11-27T15:41:56.835Z,10.30
2022-11-27T15:44:27.360Z,10.30
2022-11-27T15:46:58.466Z,10.30
2022-11-27T15:49:28.532Z,10.30
2022-11-27T15:51:57.599Z,10.30
2022-11-27T15:54:26.564Z,10.30
2022-11-27T15:56:54.931Z,10.30
2022-11-27T15:59:24.711Z,10.30
2022-11-27T16:01:53.128Z,10.30
2022-11-27T16:04:21.519Z,10.30
2022-11-27T16:06:51.282Z,10.30
2022-11-27T16:09:19.727Z,10.30
2022-11-27T16:11:48.479Z,10.20
2022-11-27T16:14:16.828Z,10.40
2022-11-27T16:16:45.323Z,10.30
2022-11-27T16:19:14.881Z,10.50
2022-11-27T16:21:43.442Z,10.30
2022-11-27T16:24:15.730Z,10.30
2022-11-27T16:26:44.326Z,10.30
2022-11-27T16:29:13.083Z,10.30
2022-11-27T16:31:41.825Z,10.20
2022-11-27T16:34:10.370Z,10.40
2022-11-27T16:36:43.774Z,10.30
2022-11-27T16:39:14.030Z,10.40
2022-11-27T16:41:42.429Z,10.30
2022-11-27T16:44:13.387Z,10.30
2022-11-27T16:46:44.996Z,10.30
2022-11-27T16:49:14.083Z,10.30
2022-11-27T16:51:43.804Z,10.40
2022-11-27T16:54:15.368Z,10.30
2022-11-27T16:56:44.975Z,10.30
2022-11-27T16:59:16.225Z,10.20
2022-11-27T17:01:45.597Z,10.30
2022-11-27T17:04:18.746Z,10.30
2022-11-27T17:06:49.829Z,10.30
2022-11-27T17:09:20.463Z,10.50
2022-11-27T17:11:49.556Z,10.20
2022-11-27T17:14:22.310Z,10.30
2022-11-27T17:16:50.894Z,10.20
2022-11-27T17:19:19.756Z,10.50
2022-11-27T17:21:48.260Z,10.20
2022-11-27T17:24:19.435Z,10.20
2022-11-27T17:26:49.349Z,10.20
2022-11-27T17:29:20.980Z,10.20
2022-11-27T17:31:51.745Z,10.20
2022-11-27T17:34:20.990Z,10.20
2022-11-27T17:36:57.355Z,10.20
2022-11-27T17:39:27.108Z,10.20
2022-11-27T17:41:55.504Z,10.50
2022-11-27T17:44:23.868Z,10.20
2022-11-27T17:46:52.392Z,10.20
2022-11-27T17:49:22.205Z,10.20
2022-11-27T17:51:51.832Z,10.20
2022-11-27T17:54:21.520Z,10.20
2022-11-27T17:56:51.733Z,10.20
2022-11-27T17:59:21.074Z,10.20
2022-11-27T18:01:52.877Z,10.30
2022-11-27T18:04:21.952Z,10.20
2022-11-27T18:06:50.366Z,10.40
2022-11-27T18:09:18.824Z,10.50
2022-11-27T18:11:47.277Z,10.20
2022-11-27T18:14:18.271Z,10.20
2022-11-27T18:16:46.714Z,10.20
2022-11-27T18:19:15.252Z,10.20
2022-11-27T18:21:43.602Z,10.20
2022-11-27T18:24:27.140Z,10.30
2022-11-27T18:27:11.584Z,10.20
2022-11-27T18:29:44.662Z,10.20
2022-11-27T18:32:16.990Z,10.20
2022-11-27T18:34:46.525Z,10.20
2022-11-27T18:37:15.375Z,10.20
2022-11-27T18:39:45.390Z,10.20
2022-11-27T18:42:15.335Z,10.20
2022-11-27T18:44:45.586Z,10.30
2022-11-27T18:47:15.546Z,10.20
2022-11-27T18:49:46.107Z,10.20
2022-11-27T18:52:14.690Z,10.20
2022-11-27T18:54:44.196Z,10.40
2022-11-27T18:57:13.397Z,10.20
2022-11-27T18:59:45.634Z,10.20
2022-11-27T19:02:14.383Z,10.10
2022-11-27T19:04:44.811Z,10.10
2022-11-27T19:07:13.576Z,10.10
2022-11-27T19:09:42.578Z,10.10
2022-11-27T19:12:12.231Z,10.10
2022-11-27T19:14:40.975Z,10.40
2022-11-27T19:17:11.340Z,10.10
2022-11-27T19:19:55.691Z,10.10
2022-11-27T19:22:24.436Z,10.10
2022-11-27T19:24:52.883Z,10.10
2022-11-27T19:27:21.267Z,10.30
2022-11-27T19:29:50.109Z,10.20
2022-11-27T19:32:20.408Z,10.20
2022-11-27T19:34:53.345Z,10.30
2022-11-27T19:37:33.951Z,10.20
2022-11-27T19:40:03.991Z,10.40
2022-11-27T19:42:32.973Z,10.20
2022-11-27T19:45:01.359Z,10.20
2022-11-27T19:47:31.254Z,10.20
2022-11-27T19:49:59.758Z,10.30
2022-11-27T19:52:28.172Z,10.20
2022-11-27T19:54:56.584Z,10.30
2022-11-27T19:57:25.435Z,10.20
2022-11-27T19:59:54.384Z,10.20
2022-11-27T20:02:24.453Z,10.20
2022-11-27T20:04:55.136Z,10.20
2022-11-27T20:07:24.134Z,10.40
2022-11-27T20:09:53.257Z,10.30
2022-11-27T20:12:22.293Z,10.30
2022-11-27T20:14:51.426Z,10.30
2022-11-27T20:17:20.342Z,10.30
2022-11-27T20:19:48.754Z,10.30
2022-11-27T20:22:18.662Z,10.30
2022-11-27T20:25:04.387Z,10.30
2022-11-27T20:27:35.679Z,10.30
2022-11-27T20:30:07.554Z,10.30
2022-11-27T20:32:36.190Z,10.30
2022-11-27T20:35:05.129Z,10.30
2022-11-27T20:37:35.125Z,10.30
2022-11-27T20:40:05.150Z,10.40
2022-11-27T20:42:34.302Z,10.30
2022-11-27T20:45:08.193Z,10.30
2022-11-27T20:47:36.999Z,10.30
2022-11-27T20:50:07.054Z,10.30
2022-11-27T20:52:36.842Z,10.30
2022-11-27T20:55:06.935Z,10.30
2022-11-27T20:57:35.543Z,10.30
2022-11-27T21:00:04.318Z,10.30
2022-11-27T21:02:33.368Z,10.30
2022-11-27T21:05:01.922Z,10.40
2022-11-27T21:07:30.336Z,10.40
2022-11-27T21:10:00.272Z,10.40
2022-11-27T21:12:29.010Z,10.40
2022-11-27T21:14:57.610Z,10.40
2022-11-27T21:17:26.672Z,10.40
2022-11-27T21:19:55.627Z,10.40
2022-11-27T21:22:24.660Z,10.40
2022-11-27T21:24:53.574Z,10.40
2022-11-27T21:27:23.440Z,10.40
2022-11-27T21:29:51.967Z,10.40
2022-11-27T21:32:22.743Z,10.40
2022-11-27T21:34:51.251Z,10.40
2022-11-27T21:37:19.955Z,10.30
2022-11-27T21:39:48.519Z,10.30
2022-11-27T21:42:17.084Z,10.40
2022-11-27T21:44:47.011Z,10.40
2022-11-27T21:47:15.498Z,10.40
2022-11-27T21:49:44.412Z,10.40
2022-11-27T21:52:14.417Z,10.40
2022-11-27T21:54:43.015Z,10.40
2022-11-27T21:57:11.609Z,10.40
2022-11-27T21:59:40.626Z,10.40
2022-11-27T22:02:12.289Z,10.40
2022-11-27T22:04:42.242Z,10.60
2022-11-27T22:07:10.796Z,10.40
2022-11-27T22:09:39.130Z,10.50
2022-11-27T22:12:07.983Z,10.70
2022-11-27T22:14:36.698Z,10.40
2022-11-27T22:17:05.297Z,10.40
2022-11-27T22:19:40.302Z,10.40
2022-11-27T22:22:08.896Z,10.40
2022-11-27T22:24:37.416Z,10.40
2022-11-27T22:27:06.874Z,10.40
2022-11-27T22:29:35.317Z,10.40
2022-11-27T22:32:04.551Z,10.40
2022-11-27T22:34:34.913Z,10.40
2022-11-27T22:37:05.919Z,10.40
2022-11-27T22:39:34.590Z,10.40
2022-11-27T22:42:04.232Z,10.40
2022-11-27T22:44:32.672Z,10.70
2022-11-27T22:47:01.843Z,10.40
2022-11-27T22:49:30.258Z,10.40
2022-11-27T22:52:03.201Z,10.40
2022-11-27T22:54:31.647Z,10.40
2022-11-27T22:57:00.012Z,10.50
2022-11-27T22:59:33.683Z,10.40
2022-11-27T23:02:09.852Z,10.40
2022-11-27T23:04:42.318Z,10.40
2022-11-27T23:07:13.675Z,10.40
2022-11-27T23:09:42.225Z,10.40
2022-11-27T23:12:10.593Z,10.40
2022-11-27T23:14:39.144Z,10.40
2022-11-27T23:17:07.792Z,10.40
2022-11-27T23:19:36.303Z,10.40
2022-11-27T23:22:04.741Z,10.40
2022-11-27T23:24:34.496Z,10.40
2022-11-27T23:27:02.864Z,10.40
2022-11-27T23:29:31.306Z,10.40
2022-11-27T23:31:59.762Z,10.40
2022-11-27T23:34:28.154Z,10.60
2022-11-27T23:36:56.480Z,10.30
2022-11-27T23:39:24.906Z,10.40
2022-11-27T23:41:54.689Z,10.40
2022-11-27T23:44:23.124Z,10.40
2022-11-27T23:46:51.513Z,10.40
2022-11-27T23:49:19.948Z,10.40
2022-11-27T23:51:48.950Z,10.40
2022-11-27T23:54:17.340Z,10.30
2022-11-27T23:56:45.744Z,10.30
2022-11-27T23:59:15.513Z,10.30
